Time;durP1;ratioP1;P1;durP2;ratioP2;P2;SDS_P1;SDS_P2;PMS_P1;PMS_P2;Temp;Humidity;BMP_temperature;BMP_pressure;BME280_temperature;BME280_humidity;BME280_pressure;Samples;Min_cycle;Max_cycle;Signal;HPM_P1;HPM_P2
2023/07/30 00:00:11;;;;;;;4.20;3.80;;;;;;;16.66;100.00;100368.52;105671;1254;72496;-45
2023/07/30 00:02:38;;;;;;;5.40;3.20;;;;;;;16.67;100.00;100364.98;105639;1257;62071;-46
2023/07/30 00:05:06;;;;;;;4.30;3.80;;;;;;;16.68;100.00;100364.09;105697;1254;60541;-44
2023/07/30 00:07:33;;;;;;;7.00;3.80;;;;;;;16.71;100.00;100364.48;105726;1256;73918;-45
2023/07/30 00:10:01;;;;;;;8.40;4.00;;;;;;;16.76;100.00;100366.52;105805;1257;65444;-45
2023/07/30 00:12:28;;;;;;;6.00;3.90;;;;;;;16.80;100.00;100367.71;105635;1254;72553;-45
2023/07/30 00:14:56;;;;;;;4.10;3.80;;;;;;;16.82;100.00;100367.81;105978;1259;61786;-45
2023/07/30 00:17:23;;;;;;;9.70;4.30;;;;;;;16.84;100.00;100368.58;105615;1254;60408;-45
2023/07/30 00:19:50;;;;;;;4.70;4.30;;;;;;;16.86;100.00;100365.88;105015;1266;787287;-45
2023/07/30 00:23:39;;;;;;;7.30;4.20;;;;;;;16.91;100.00;100369.12;102528;1292;615336;-44
2023/07/30 00:26:05;;;;;;;5.50;4.00;;;;;;;16.92;100.00;100367.51;104958;1269;61939;-44
2023/07/30 00:28:32;;;;;;;5.30;3.90;;;;;;;16.98;100.00;100368.67;104820;1272;60138;-44
2023/07/30 00:31:00;;;;;;;6.90;4.00;;;;;;;17.01;100.00;100369.59;104742;1267;72273;-44
2023/07/30 00:33:28;;;;;;;4.60;4.20;;;;;;;17.03;100.00;100369.46;104744;1274;65227;-44
2023/07/30 00:35:56;;;;;;;8.70;4.20;;;;;;;17.03;100.00;100367.23;104456;1268;739847;-44
2023/07/30 00:38:23;;;;;;;4.60;4.20;;;;;;;16.99;100.00;100366.36;104851;1269;61938;-44
2023/07/30 00:40:50;;;;;;;4.40;3.90;;;;;;;16.95;100.00;100365.98;105426;1264;60172;-45
2023/07/30 00:43:17;;;;;;;4.90;4.30;;;;;;;16.93;100.00;100365.23;105182;1264;72175;-44
2023/07/30 00:45:44;;;;;;;4.90;4.30;;;;;;;16.91;100.00;100366.70;105328;1266;64551;-44
2023/07/30 00:48:11;;;;;;;8.50;3.90;;;;;;;16.89;100.00;100367.67;105199;1266;72528;-44
2023/07/30 00:50:38;;;;;;;4.80;3.90;;;;;;;16.85;100.00;100367.32;105396;1265;61920;-45
2023/07/30 00:53:07;;;;;;;8.50;3.90;;;;;;;16.83;100.00;100370.55;105161;1260;59995;-44
2023/07/30 00:55:35;;;;;;;4.30;3.90;;;;;;;16.82;100.00;100372.69;105264;1261;73448;-44
2023/07/30 00:58:03;;;;;;;5.10;3.40;;;;;;;16.81;100.00;100376.39;105220;1264;64138;-44
2023/07/30 01:00:31;;;;;;;4.20;3.30;;;;;;;16.79;100.00;100379.98;105154;1261;71180;-43
2023/07/30 01:02:59;;;;;;;5.00;3.40;;;;;;;16.75;100.00;100379.23;105289;1264;60507;-44
2023/07/30 01:05:26;;;;;;;3.80;3.30;;;;;;;16.73;100.00;100379.69;105237;1274;60319;-44
2023/07/30 01:07:54;;;;;;;5.00;3.30;;;;;;;16.73;100.00;100378.68;105184;1266;73014;-44
2023/07/30 01:10:21;;;;;;;3.80;3.10;;;;;;;16.74;100.00;100380.00;105406;1261;65387;-44
2023/07/30 01:12:49;;;;;;;3.10;2.90;;;;;;;16.75;100.00;100375.23;105317;1263;72779;-44
2023/07/30 01:15:15;;;;;;;3.90;3.20;;;;;;;16.77;100.00;100377.95;105276;1264;61873;-44
2023/07/30 01:17:44;;;;;;;3.00;2.80;;;;;;;16.79;100.00;100379.79;105747;1258;60069;-44
2023/07/30 01:20:11;;;;;;;3.30;2.70;;;;;;;16.77;100.00;100380.05;105439;1256;73038;-44
2023/07/30 01:22:39;;;;;;;4.30;3.70;;;;;;;16.73;100.00;100383.36;105726;1261;64405;-44
2023/07/30 01:25:06;;;;;;;4.60;3.40;;;;;;;16.69;100.00;100383.88;105731;1257;71506;-44
2023/07/30 01:27:37;;;;;;;3.70;3.40;;;;;;;16.63;100.00;100386.25;105478;1259;63920;-44
2023/07/30 01:30:08;;;;;;;3.80;3.20;;;;;;;16.56;100.00;100381.85;105664;1257;59605;-44
2023/07/30 01:32:36;;;;;;;7.80;3.10;;;;;;;16.50;100.00;100384.20;105714;1259;73024;-44
2023/07/30 01:35:04;;;;;;;4.40;3.80;;;;;;;16.45;100.00;100390.52;105617;1260;65285;-43
2023/07/30 01:37:32;;;;;;;5.20;3.30;;;;;;;16.40;100.00;100393.71;105618;1257;72642;-44
2023/07/30 01:39:58;;;;;;;3.50;3.30;;;;;;;16.36;100.00;100397.00;105793;1260;61943;-44
2023/07/30 01:42:29;;;;;;;7.00;3.30;;;;;;;16.31;100.00;100394.61;105463;1260;59955;-44
2023/07/30 01:44:57;;;;;;;3.40;3.20;;;;;;;16.25;100.00;100397.47;105511;1258;72883;-44
2023/07/30 01:47:23;;;;;;;4.10;3.10;;;;;;;16.19;100.00;100391.12;105391;1259;65471;-44
2023/07/30 01:49:52;;;;;;;3.50;2.90;;;;;;;16.14;100.00;100399.87;105687;1256;71518;-43
2023/07/30 01:52:18;;;;;;;11.40;3.30;;;;;;;16.11;100.00;100398.95;105637;1261;62033;-44
2023/07/30 01:54:45;;;;;;;5.10;3.50;;;;;;;16.10;100.00;100402.30;105635;1257;59654;-44
2023/07/30 01:57:13;;;;;;;8.50;3.50;;;;;;;16.08;100.00;100402.88;106072;1257;73026;-44
2023/07/30 01:59:40;;;;;;;4.00;3.60;;;;;;;16.08;100.00;100402.38;105622;1260;65552;-44
2023/07/30 02:02:07;;;;;;;5.60;3.40;;;;;;;16.06;100.00;100406.44;105705;1257;72438;-43
2023/07/30 02:04:34;;;;;;;9.00;3.20;;;;;;;16.06;100.00;100404.91;105630;1256;61968;-44
2023/07/30 02:07:02;;;;;;;4.20;3.60;;;;;;;16.07;100.00;100407.48;105601;1255;60249;-43
2023/07/30 02:09:29;;;;;;;4.80;3.10;;;;;;;16.11;100.00;100406.25;105829;1256;72997;-44
2023/07/30 02:11:56;;;;;;;5.80;3.50;;;;;;;16.16;100.00;100406.40;105750;1260;65261;-44
2023/07/30 02:14:23;;;;;;;4.70;3.40;;;;;;;16.21;100.00;100403.23;105621;1258;73117;-44
2023/07/30 02:16:49;;;;;;;4.30;3.50;;;;;;;16.25;100.00;100399.02;105602;1256;62432;-44
2023/07/30 02:19:16;;;;;;;5.90;3.80;;;;;;;16.27;100.00;100400.52;105736;1254;59982;-44
2023/07/30 02:21:43;;;;;;;4.40;3.90;;;;;;;16.27;100.00;100401.40;105554;1255;73040;-44
2023/07/30 02:24:11;;;;;;;8.20;3.90;;;;;;;16.28;100.00;100403.45;105565;1260;65489;-44
2023/07/30 02:26:38;;;;;;;6.10;3.90;;;;;;;16.28;100.00;100405.69;105629;1257;72493;-44
2023/07/30 02:29:05;;;;;;;4.80;3.90;;;;;;;16.29;100.00;100410.02;105525;1260;61842;-44
2023/07/30 02:31:32;;;;;;;4.40;3.50;;;;;;;16.29;100.00;100411.59;105500;1256;59982;-44
2023/07/30 02:33:59;;;;;;;5.80;4.10;;;;;;;16.28;100.00;100416.69;105625;1258;73064;-43
2023/07/30 02:36:26;;;;;;;6.00;3.40;;;;;;;16.26;100.00;100415.89;105710;1254;65173;-43
2023/07/30 02:38:53;;;;;;;11.10;3.90;;;;;;;16.24;100.00;100418.38;105675;1256;72465;-44
2023/07/30 02:41:20;;;;;;;3.90;3.50;;;;;;;16.22;100.00;100421.80;105580;1260;61883;-44
2023/07/30 02:43:47;;;;;;;4.10;3.80;;;;;;;16.19;100.00;100422.79;105487;1257;60349;-45
2023/07/30 02:46:14;;;;;;;8.70;3.90;;;;;;;16.17;100.00;100427.41;105503;1256;71546;-44
2023/07/30 02:48:43;;;;;;;13.10;6.30;;;;;;;16.13;100.00;100423.91;105557;1258;64694;-44
2023/07/30 02:51:10;;;;;;;13.20;6.60;;;;;;;16.08;100.00;100426.91;105586;1257;72655;-44
2023/07/30 02:53:37;;;;;;;12.30;8.10;;;;;;;16.04;100.00;100432.29;105537;1261;61793;-44
2023/07/30 02:56:03;;;;;;;13.20;7.50;;;;;;;16.01;100.00;100428.58;105601;1260;59508;-44
2023/07/30 02:58:30;;;;;;;12.50;7.10;;;;;;;15.98;100.00;100436.91;105525;1260;73109;-44
2023/07/30 03:01:08;;;;;;;12.30;6.90;;;;;;;15.96;100.00;100440.13;105571;1261;65295;-45
2023/07/30 03:03:35;;;;;;;14.70;7.80;;;;;;;15.95;100.00;100441.52;105556;1257;72630;-44
2023/07/30 03:06:02;;;;;;;10.90;7.30;;;;;;;15.98;100.00;100443.35;105651;1259;61930;-44
2023/07/30 03:08:29;;;;;;;9.40;5.80;;;;;;;16.01;100.00;100442.15;105561;1257;60270;-44
2023/07/30 03:10:59;;;;;;;10.90;6.20;;;;;;;16.06;100.00;100440.41;105612;1257;72955;-44
2023/07/30 03:13:26;;;;;;;8.80;5.40;;;;;;;16.12;100.00;100435.83;106004;1260;65505;-44
2023/07/30 03:15:53;;;;;;;6.60;4.60;;;;;;;16.18;100.00;100437.30;105699;1257;72489;-44
2023/07/30 03:18:20;;;;;;;6.50;4.40;;;;;;;16.24;100.00;100433.90;105518;1260;61822;-44
2023/07/30 03:20:47;;;;;;;7.90;4.60;;;;;;;16.30;100.00;100436.77;105540;1257;60273;-44
2023/07/30 03:23:14;;;;;;;6.90;4.60;;;;;;;16.39;100.00;100442.88;105848;1256;73087;-44
2023/07/30 03:25:42;;;;;;;5.20;4.40;;;;;;;16.47;100.00;100439.54;105667;1259;66523;-44
2023/07/30 03:28:08;;;;;;;5.10;4.60;;;;;;;16.56;100.00;100439.67;105527;1258;72370;-44
2023/07/30 03:30:35;;;;;;;4.80;4.20;;;;;;;16.65;100.00;100438.24;105516;1260;61996;-44
2023/07/30 03:33:04;;;;;;;6.40;3.60;;;;;;;16.72;100.00;100437.25;105610;1255;60230;-44
2023/07/30 03:35:34;;;;;;;4.90;3.70;;;;;;;16.80;100.00;100444.58;105788;1256;71882;-44
2023/07/30 03:38:02;;;;;;;5.80;3.10;;;;;;;16.87;100.00;100451.38;105537;1260;65305;-44
2023/07/30 03:40:29;;;;;;;3.90;3.50;;;;;;;16.96;100.00;100446.83;105647;1257;72798;-44
2023/07/30 03:42:56;;;;;;;4.10;3.70;;;;;;;17.07;100.00;100449.29;105593;1260;61948;-44
2023/07/30 03:45:22;;;;;;;4.00;3.60;;;;;;;17.16;100.00;100448.54;105475;1254;60173;-44
2023/07/30 03:47:50;;;;;;;6.00;3.60;;;;;;;17.25;100.00;100444.98;105606;1256;73030;-44
2023/07/30 03:50:17;;;;;;;4.80;3.60;;;;;;;17.36;100.00;100446.41;105606;1260;64245;-43
2023/07/30 03:52:45;;;;;;;3.90;3.60;;;;;;;17.50;100.00;100449.80;105586;1258;72762;-44
2023/07/30 03:55:12;;;;;;;3.40;3.20;;;;;;;17.65;100.00;100447.33;105611;1260;62019;-45
2023/07/30 03:57:38;;;;;;;6.60;3.40;;;;;;;17.84;100.00;100451.12;105496;1258;60835;-45
2023/07/30 04:00:07;;;;;;;6.70;2.70;;;;;;;18.12;100.00;100453.61;105556;1260;73465;-44
2023/07/30 04:02:40;;;;;;;3.10;2.90;;;;;;;18.47;100.00;100458.16;105531;1259;65584;-44
2023/07/30 04:05:07;;;;;;;3.00;2.70;;;;;;;18.81;100.00;100457.63;105577;1259;71246;-44
2023/07/30 04:07:37;;;;;;;3.10;2.80;;;;;;;19.16;100.00;100464.39;105640;1262;61175;-44
2023/07/30 04:10:08;;;;;;;2.90;2.70;;;;;;;19.55;100.00;100466.95;105569;1257;60330;-44
2023/07/30 04:12:36;;;;;;;8.70;3.00;;;;;;;19.97;100.00;100476.00;105457;1260;73615;-44
2023/07/30 04:15:04;;;;;;;4.80;3.20;;;;;;;20.37;100.00;100484.37;105591;1260;65487;-44
2023/07/30 04:17:31;;;;;;;8.60;3.20;;;;;;;20.77;100.00;100500.59;105658;1257;72474;-44
2023/07/30 04:19:59;;;;;;;3.90;2.70;;;;;;;21.15;100.00;100522.71;105618;1260;61957;-44
2023/07/30 04:22:25;;;;;;;3.20;2.70;;;;;;;21.50;100.00;100553.86;105534;1259;60972;-44
2023/07/30 04:24:52;;;;;;;5.90;2.60;;;;;;;21.77;100.00;100611.92;105685;1259;73021;-44
2023/07/30 04:27:20;;;;;;;5.20;2.50;;;;;;;21.89;100.00;100731.50;105786;1258;65473;-45
2023/07/30 04:29:47;;;;;;;3.10;2.70;;;;;;;21.95;100.00;100889.58;106503;1257;72755;-45
2023/07/30 04:32:14;;;;;;;3.90;3.10;;;;;;;22.10;100.00;100963.05;105801;1256;61929;-44
2023/07/30 04:34:40;;;;;;;4.50;3.10;;;;;;;22.35;100.00;100937.83;105664;1259;60431;-44
2023/07/30 04:37:08;;;;;;;2.60;2.40;;;;;;;22.63;100.00;100871.13;105501;1259;74413;-44
2023/07/30 04:39:36;;;;;;;3.70;2.70;;;;;;;22.81;100.00;100705.30;105865;1256;65492;-44
2023/07/30 04:42:03;;;;;;;3.20;2.60;;;;;;;22.80;100.00;100396.91;105749;1254;74495;-44
2023/07/30 04:44:30;;;;;;;8.90;2.70;;;;;;;22.64;100.00;100138.33;105784;1257;60530;-45
2023/07/30 04:47:04;;;;;;;2.60;2.40;;;;;;;22.54;100.00;100048.67;105679;1256;60461;-44
2023/07/30 04:49:31;;;;;;;3.40;2.30;;;;;;;22.62;100.00;100046.83;105746;1259;73782;-45
2023/07/30 04:51:58;;;;;;;2.90;2.30;;;;;;;22.86;100.00;100047.64;105765;1260;65431;-45
2023/07/30 04:54:25;;;;;;;3.50;2.70;;;;;;;23.15;100.00;100011.30;105993;1256;72712;-45
2023/07/30 04:56:51;;;;;;;6.70;2.40;;;;;;;23.35;100.00;99975.84;105524;1260;60437;-45
2023/07/30 04:59:19;;;;;;;2.70;2.50;;;;;;;23.51;100.00;99967.64;105891;1256;60488;-44
2023/07/30 05:01:46;;;;;;;2.60;2.40;;;;;;;23.55;100.00;99968.73;105942;1260;73971;-44
2023/07/30 05:04:12;;;;;;;2.40;2.30;;;;;;;23.42;100.00;99982.67;105816;1256;65415;-44
2023/07/30 05:06:39;;;;;;;4.10;2.30;;;;;;;23.34;100.00;99992.96;105637;1259;72633;-44
2023/07/30 05:09:07;;;;;;;2.50;2.30;;;;;;;23.40;100.00;99990.55;105571;1260;61086;-44
2023/07/30 05:11:34;;;;;;;5.40;2.50;;;;;;;23.74;100.00;99988.91;105677;1257;60530;-44
2023/07/30 05:14:01;;;;;;;3.70;2.30;;;;;;;24.21;100.00;99986.88;105577;1257;73679;-44
2023/07/30 05:16:28;;;;;;;3.00;2.30;;;;;;;24.58;100.00;99994.39;106188;1255;65524;-44
2023/07/30 05:18:56;;;;;;;2.20;2.10;;;;;;;24.73;100.00;100025.42;105620;1259;72697;-45
2023/07/30 05:21:22;;;;;;;5.00;2.70;;;;;;;24.96;100.00;100017.33;105684;1256;60692;-45
2023/07/30 05:23:50;;;;;;;6.30;2.10;;;;;;;25.29;100.00;100027.14;105644;1257;60550;-45
2023/07/30 05:26:17;;;;;;;2.40;2.20;;;;;;;25.58;100.00;100060.73;105618;1259;73608;-45
2023/07/30 05:28:43;;;;;;;3.30;2.30;;;;;;;25.78;100.00;100099.61;105583;1260;65497;-45
2023/07/30 05:31:10;;;;;;;2.50;2.20;;;;;;;25.95;100.00;100134.35;105574;1256;73037;-45
2023/07/30 05:33:37;;;;;;;3.30;2.70;;;;;;;26.01;100.00;100169.14;105614;1259;60442;-45
2023/07/30 05:36:05;;;;;;;3.40;2.30;;;;;;;26.03;100.00;100188.80;105506;1256;60452;-45
2023/07/30 05:38:32;;;;;;;2.30;2.20;;;;;;;26.04;100.00;100206.38;105575;1260;73995;-45
2023/07/30 05:40:59;;;;;;;2.70;2.20;;;;;;;26.02;100.00;100228.11;105667;1256;65571;-44
2023/07/30 05:43:26;;;;;;;4.80;2.30;;;;;;;25.80;100.00;100247.81;105607;1256;73050;-45
2023/07/30 05:45:53;;;;;;;3.30;2.20;;;;;;;25.74;100.00;100235.27;105576;1257;60457;-45
2023/07/30 05:48:21;;;;;;;2.40;2.20;;;;;;;25.83;100.00;100229.86;105547;1259;60412;-45
2023/07/30 05:50:48;;;;;;;3.00;2.40;;;;;;;25.94;100.00;100230.77;105792;1260;73790;-46
2023/07/30 05:53:15;;;;;;;4.40;2.20;;;;;;;25.86;100.00;100241.69;105757;1260;65479;-46
2023/07/30 05:55:42;;;;;;;7.40;2.20;;;;;;;25.87;100.00;100243.52;105608;1256;72614;-44
2023/07/30 05:58:08;;;;;;;2.20;2.10;;;;;;;25.90;100.00;100236.17;105474;1260;60464;-44
2023/07/30 06:00:35;;;;;;;3.50;2.60;;;;;;;25.76;100.00;100256.14;105523;1256;60418;-44
2023/07/30 06:03:03;;;;;;;4.50;2.30;;;;;;;25.60;100.00;100244.64;105543;1258;73778;-44
2023/07/30 06:05:30;;;;;;;4.10;2.10;;;;;;;25.54;100.00;100224.42;105640;1259;65516;-45
2023/07/30 06:07:59;;;;;;;4.80;2.30;;;;;;;25.42;100.00;100214.86;105641;1257;72473;-45
2023/07/30 06:10:26;;;;;;;6.50;2.30;;;;;;;25.35;100.00;100200.89;105778;1257;60546;-45
2023/07/30 06:12:53;;;;;;;6.50;2.40;;;;;;;25.34;100.00;100195.88;105575;1256;60459;-45
2023/07/30 06:15:19;;;;;;;2.60;2.40;;;;;;;25.44;100.00;100180.60;105603;1257;73817;-45
2023/07/30 06:17:46;;;;;;;4.80;2.10;;;;;;;25.56;100.00;100174.08;105577;1260;65593;-45
2023/07/30 06:20:13;;;;;;;2.20;2.10;;;;;;;25.56;100.00;100179.70;105531;1257;72508;-45
2023/07/30 06:22:40;;;;;;;4.60;2.40;;;;;;;25.48;100.00;100191.70;105488;1260;60492;-45
2023/07/30 06:25:07;;;;;;;2.60;2.30;;;;;;;25.52;100.00;100194.96;105607;1255;60723;-44
2023/07/30 06:27:34;;;;;;;7.10;2.60;;;;;;;25.61;100.00;100194.72;105615;1256;73838;-45
2023/07/30 06:30:01;;;;;;;4.10;2.30;;;;;;;25.75;100.00;100189.42;105524;1260;65467;-45
2023/07/30 06:32:28;;;;;;;6.50;2.30;;;;;;;25.91;100.00;100185.97;105642;1260;72647;-45
2023/07/30 06:34:55;;;;;;;7.10;2.30;;;;;;;25.98;100.00;100193.60;105481;1260;60804;-45
2023/07/30 06:37:22;;;;;;;2.80;2.40;;;;;;;25.98;100.00;100209.34;105573;1256;60469;-45
2023/07/30 06:39:49;;;;;;;2.70;1.90;;;;;;;25.98;100.00;100219.08;105709;1256;73764;-45
2023/07/30 06:42:16;;;;;;;8.00;2.50;;;;;;;25.97;100.00;100234.02;105545;1256;65135;-45
2023/07/30 06:44:43;;;;;;;5.10;2.20;;;;;;;25.93;100.00;100243.54;105512;1256;72639;-45
2023/07/30 06:47:10;;;;;;;3.10;2.70;;;;;;;25.81;100.00;100253.77;105635;1259;60578;-45
2023/07/30 06:49:37;;;;;;;8.70;2.70;;;;;;;25.68;100.00;100250.46;105594;1256;60480;-45
2023/07/30 06:52:04;;;;;;;5.90;2.40;;;;;;;25.52;100.00;100250.54;105611;1256;73668;-44
2023/07/30 06:54:31;;;;;;;4.90;2.50;;;;;;;25.49;100.00;100217.95;105673;1256;65402;-45
2023/07/30 06:56:58;;;;;;;3.20;2.20;;;;;;;25.54;100.00;100195.81;105588;1256;72550;-45
2023/07/30 06:59:25;;;;;;;6.90;2.80;;;;;;;25.61;100.00;100206.52;105502;1259;61705;-45
2023/07/30 07:01:52;;;;;;;2.40;2.20;;;;;;;25.68;100.00;100212.65;105523;1256;60561;-45
2023/07/30 07:04:19;;;;;;;4.00;2.30;;;;;;;25.72;100.00;100211.94;105575;1256;73832;-45
2023/07/30 07:06:46;;;;;;;8.90;2.10;;;;;;;25.77;100.00;100211.17;105537;1259;65343;-45
2023/07/30 07:09:15;;;;;;;3.30;2.10;;;;;;;25.90;100.00;100226.52;105611;1256;72560;-45
2023/07/30 07:11:44;;;;;;;3.00;2.50;;;;;;;25.96;100.00;100249.42;105636;1255;60558;-45
2023/07/30 07:14:11;;;;;;;3.50;2.50;;;;;;;26.01;100.00;100274.44;105541;1255;60447;-45
2023/07/30 07:16:38;;;;;;;6.80;2.60;;;;;;;26.16;100.00;100278.17;105631;1256;73809;-44
2023/07/30 07:19:06;;;;;;;3.30;3.00;;;;;;;26.28;100.00;100276.80;105671;1258;65398;-44
2023/07/30 07:21:32;;;;;;;4.40;2.30;;;;;;;26.35;100.00;100288.15;105643;1256;72617;-45
2023/07/30 07:24:00;;;;;;;3.60;3.30;;;;;;;26.49;100.00;100287.18;105567;1256;60568;-44
2023/07/30 07:26:27;;;;;;;4.70;3.40;;;;;;;26.66;100.00;100266.57;105682;1257;60323;-45
2023/07/30 07:28:56;;;;;;;2.80;2.60;;;;;;;26.80;100.00;100281.39;105512;1256;73680;-44
2023/07/30 07:31:22;;;;;;;2.60;2.50;;;;;;;26.96;99.68;100286.35;105605;1259;63945;-45
2023/07/30 07:33:49;;;;;;;4.00;3.70;;;;;;;27.02;90.21;100258.28;105569;1256;72905;-45
2023/07/30 07:36:16;;;;;;;4.20;3.50;;;;;;;26.97;78.22;100230.86;105586;1256;60553;-45
2023/07/30 07:38:43;;;;;;;6.80;3.40;;;;;;;26.97;77.04;100253.04;105671;1256;60323;-45
2023/07/30 07:41:16;;;;;;;4.00;3.80;;;;;;;27.01;77.63;100276.36;105532;1259;73704;-45
2023/07/30 07:43:43;;;;;;;5.00;4.70;;;;;;;27.02;81.40;100315.59;105568;1260;64320;-45
2023/07/30 07:46:13;;;;;;;7.60;5.00;;;;;;;27.23;81.69;100302.39;105537;1256;72347;-45
2023/07/30 07:48:40;;;;;;;5.90;5.30;;;;;;;27.49;78.22;100273.42;105637;1256;60548;-46
2023/07/30 07:51:11;;;;;;;4.90;4.40;;;;;;;27.59;70.72;100190.88;105629;1259;60460;-46
2023/07/30 07:53:38;;;;;;;4.50;4.10;;;;;;;27.38;69.91;100217.88;105559;1256;73802;-46
2023/07/30 07:56:05;;;;;;;4.30;4.00;;;;;;;27.45;73.09;100284.02;105592;1260;65497;-46
2023/07/30 07:58:32;;;;;;;4.20;3.90;;;;;;;27.69;72.21;100270.48;105581;1256;72714;-46
2023/07/30 08:00:59;;;;;;;5.80;4.40;;;;;;;27.89;68.41;100207.70;105633;1256;60431;-46
2023/07/30 08:03:29;;;;;;;5.00;4.70;;;;;;;27.92;67.35;100210.95;105738;1257;62021;-46
2023/07/30 08:05:56;;;;;;;6.30;4.50;;;;;;;28.00;68.48;100251.99;105504;1260;73792;-46
2023/07/30 08:08:25;;;;;;;4.80;4.00;;;;;;;28.25;67.81;100239.01;105619;1259;65393;-46
2023/07/30 08:10:53;;;;;;;6.30;4.00;;;;;;;28.52;65.56;100189.26;105745;1255;72577;-46
2023/07/30 08:13:20;;;;;;;4.00;3.80;;;;;;;28.59;63.03;100137.29;105567;1259;60447;-46
2023/07/30 08:15:47;;;;;;;5.50;3.20;;;;;;;28.60;63.26;100176.21;105628;1256;60630;-46
2023/07/30 08:18:15;;;;;;;7.40;2.80;;;;;;;28.68;58.98;100039.44;105517;1259;73849;-45
2023/07/30 08:20:44;;;;;;;3.10;2.70;;;;;;;28.85;59.60;100097.96;105550;1257;64129;-45
2023/07/30 08:23:12;;;;;;;3.00;2.80;;;;;;;29.15;59.58;100109.32;105620;1256;74401;-45
2023/07/30 08:25:38;;;;;;;2.70;2.60;;;;;;;29.40;55.79;99937.47;105616;1260;60384;-45
2023/07/30 08:28:05;;;;;;;3.20;2.70;;;;;;;29.34;53.93;99860.73;105612;1257;60419;-45
2023/07/30 08:30:32;;;;;;;4.00;2.70;;;;;;;29.29;54.14;99927.08;105622;1259;73687;-47
2023/07/30 08:32:59;;;;;;;5.40;2.50;;;;;;;29.32;53.89;99930.35;105561;1259;65376;-45
2023/07/30 08:35:26;;;;;;;5.10;2.70;;;;;;;29.21;52.04;99812.09;105530;1256;72701;-46
2023/07/30 08:37:54;;;;;;;2.50;2.30;;;;;;;29.18;52.06;99834.62;105604;1256;60358;-46
2023/07/30 08:40:23;;;;;;;2.50;2.30;;;;;;;29.25;53.00;99933.50;105570;1256;60415;-46
2023/07/30 08:42:53;;;;;;;2.00;1.90;;;;;;;29.37;52.84;99936.35;105623;1256;72564;-47
2023/07/30 08:45:20;;;;;;;1.90;1.80;;;;;;;29.46;51.14;99801.98;105603;1259;65503;-46
2023/07/30 08:47:47;;;;;;;1.80;1.70;;;;;;;29.47;50.29;99748.34;105568;1256;73094;-47
2023/07/30 08:50:15;;;;;;;5.00;1.90;;;;;;;29.35;49.32;99683.34;105629;1256;60440;-46
2023/07/30 08:52:43;;;;;;;1.90;1.80;;;;;;;29.20;49.31;99701.41;105625;1256;60521;-46
2023/07/30 08:55:10;;;;;;;3.00;1.70;;;;;;;29.18;49.35;99745.57;105598;1255;73778;-46
2023/07/30 08:57:37;;;;;;;1.70;1.60;;;;;;;29.12;48.20;99648.58;105613;1259;65408;-47
2023/07/30 09:00:11;;;;;;;2.10;1.80;;;;;;;28.94;48.04;99620.02;105675;1256;72635;-46
2023/07/30 09:02:48;;;;;;;1.60;1.50;;;;;;;28.80;48.70;99731.04;105669;1256;60363;-47
2023/07/30 09:05:15;;;;;;;1.60;1.50;;;;;;;28.77;46.20;99487.62;105626;1255;60457;-47
2023/07/30 09:07:42;;;;;;;1.90;1.50;;;;;;;28.76;45.80;99419.33;105634;1259;72126;-47
2023/07/30 09:10:10;;;;;;;1.40;1.40;;;;;;;28.82;44.08;99246.58;105597;1260;64564;-47
2023/07/30 09:12:37;;;;;;;1.20;1.20;;;;;;;28.70;43.20;99143.96;105604;1256;72740;-44
2023/07/30 09:15:09;;;;;;;4.30;1.60;;;;;;;28.51;42.71;99110.00;105589;1260;60347;-44
2023/07/30 09:17:37;;;;;;;1.50;1.40;;;;;;;28.33;44.59;99353.06;105611;1256;60541;-45
2023/07/30 09:20:06;;;;;;;1.80;1.40;;;;;;;28.23;45.53;99495.50;105598;1257;73845;-46
2023/07/30 09:22:36;;;;;;;4.00;1.50;;;;;;;28.27;46.87;99692.73;105613;1257;65668;-46
2023/07/30 09:25:04;;;;;;;1.20;1.20;;;;;;;28.35;45.01;99500.20;105631;1257;73136;-46
2023/07/30 09:27:31;;;;;;;3.20;1.10;;;;;;;28.44;44.42;99394.91;105715;1259;60368;-46
2023/07/30 09:29:59;;;;;;;1.50;1.10;;;;;;;28.51;45.42;99502.39;105634;1255;60584;-46
2023/07/30 09:32:27;;;;;;;1.10;1.10;;;;;;;28.61;43.84;99341.66;105630;1259;73981;-46
2023/07/30 09:34:57;;;;;;;1.10;1.10;;;;;;;28.60;43.88;99310.14;105583;1259;65339;-46
2023/07/30 09:37:27;;;;;;;1.20;1.20;;;;;;;28.66;44.85;99431.60;105682;1255;70892;-46
2023/07/30 09:39:54;;;;;;;1.60;1.50;;;;;;;28.90;46.07;99602.11;105783;1257;60527;-46
2023/07/30 09:42:20;;;;;;;1.20;1.20;;;;;;;29.10;45.77;99580.63;105601;1255;61224;-46
2023/07/30 09:44:48;;;;;;;1.40;1.30;;;;;;;29.09;44.47;99420.27;105605;1259;73717;-46
2023/07/30 09:47:15;;;;;;;2.00;1.20;;;;;;;29.13;44.96;99485.87;105762;1256;65473;-46
2023/07/30 09:49:42;;;;;;;2.00;1.20;;;;;;;29.25;44.95;99476.66;105615;1257;72933;-46
2023/07/30 09:52:09;;;;;;;1.30;1.30;;;;;;;29.25;43.84;99363.05;105568;1259;60409;-47
2023/07/30 09:54:36;;;;;;;5.30;1.30;;;;;;;29.14;44.36;99413.48;105605;1256;60616;-46
2023/07/30 09:57:03;;;;;;;2.70;1.20;;;;;;;29.07;45.10;99529.52;105612;1257;73685;-46
2023/07/30 09:59:30;;;;;;;1.30;1.20;;;;;;;28.98;43.71;99385.57;105790;1259;65437;-47
2023/07/30 10:01:57;;;;;;;2.40;1.50;;;;;;;28.90;44.39;99445.09;105612;1256;72640;-46
2023/07/30 10:04:24;;;;;;;1.20;1.10;;;;;;;28.86;44.16;99426.66;105572;1260;60400;-47
2023/07/30 10:07:03;;;;;;;3.30;1.20;;;;;;;28.84;44.59;99472.50;105600;1256;60419;-46
2023/07/30 10:09:32;;;;;;;1.20;1.20;;;;;;;28.76;44.54;99458.35;105613;1259;73882;-48
2023/07/30 10:11:58;;;;;;;1.80;1.40;;;;;;;28.79;44.73;99498.42;105648;1257;65470;-46
2023/07/30 10:14:25;;;;;;;1.40;1.30;;;;;;;28.84;44.16;99424.73;105789;1257;72652;-46
2023/07/30 10:16:53;;;;;;;1.20;1.20;;;;;;;28.81;44.45;99441.09;105656;1259;60541;-47
2023/07/30 10:19:24;;;;;;;1.40;1.30;;;;;;;28.83;45.57;99583.39;105654;1257;60926;-49
2023/07/30 10:22:12;;;;;;;1.70;1.60;;;;;;;28.89;45.32;99588.27;105679;1256;73662;-47
2023/07/30 10:24:39;;;;;;;1.60;1.50;;;;;;;28.93;45.78;99645.30;105647;1255;65475;-46
2023/07/30 10:27:07;;;;;;;1.80;1.20;;;;;;;29.10;44.78;99501.39;105603;1257;72578;-47
2023/07/30 10:29:41;;;;;;;3.10;1.60;;;;;;;29.19;44.96;99505.30;105650;1255;60515;-47
2023/07/30 10:32:08;;;;;;;1.40;1.30;;;;;;;29.24;43.99;99419.91;105662;1256;60476;-46
2023/07/30 10:34:48;;;;;;;2.60;1.40;;;;;;;29.28;43.32;99356.63;105744;1257;73735;-46
2023/07/30 10:37:18;;;;;;;2.60;1.30;;;;;;;29.23;43.99;99393.63;105614;1259;65582;-46
2023/07/30 10:39:48;;;;;;;1.30;1.20;;;;;;;29.18;43.44;99375.48;105627;1259;72646;-45
2023/07/30 10:42:15;;;;;;;1.70;1.50;;;;;;;29.20;45.17;99532.09;105628;1256;60399;-46
2023/07/30 10:44:43;;;;;;;2.70;1.30;;;;;;;29.44;44.35;99465.69;105622;1256;60482;-46
2023/07/30 10:47:10;;;;;;;1.30;1.20;;;;;;;29.77;45.76;99611.23;105646;1258;73665;-46
2023/07/30 10:50:01;;;;;;;2.70;1.70;;;;;;;30.13;44.35;99444.32;105607;1259;65543;-45
2023/07/30 10:52:28;;;;;;;1.70;1.50;;;;;;;30.29;45.08;99530.98;105645;1259;72714;-45
2023/07/30 10:55:01;;;;;;;1.60;1.30;;;;;;;30.55;44.34;99455.77;105604;1259;60771;-46
2023/07/30 10:57:32;;;;;;;2.20;1.50;;;;;;;30.41;40.61;99033.88;105644;1256;60491;-46
2023/07/30 11:00:01;;;;;;;1.30;1.20;;;;;;;30.20;42.29;99172.58;105623;1259;74262;-46
2023/07/30 11:02:31;;;;;;;1.90;1.40;;;;;;;30.18;42.76;99268.87;105644;1259;64330;-46
2023/07/30 11:04:58;;;;;;;1.60;1.50;;;;;;;30.05;41.61;99153.31;105654;1255;72691;-46
2023/07/30 11:07:25;;;;;;;1.00;1.00;;;;;;;29.88;41.83;99151.39;105610;1261;60438;-46
2023/07/30 11:10:01;;;;;;;2.10;1.20;;;;;;;29.81;42.51;99244.06;105642;1257;60543;-46
2023/07/30 11:12:28;;;;;;;1.50;1.10;;;;;;;29.67;41.97;99197.89;105633;1257;73786;-47
2023/07/30 11:15:02;;;;;;;1.40;1.30;;;;;;;29.59;42.08;99215.94;105700;1259;64616;-50
2023/07/30 11:17:30;;;;;;;3.40;1.40;;;;;;;29.59;43.16;99320.41;105625;1257;72674;-52